createdAt,value
2018-03-04T00:00:27.300Z,-3.70
2018-03-04T00:02:55.572Z,-4.00
2018-03-04T00:05:23.812Z,-3.50
2018-03-04T00:07:52.859Z,-2.90
2018-03-04T00:10:21.093Z,-2.90
2018-03-04T00:15:49.656Z,-3.00
2018-03-04T00:18:17.898Z,-2.90
2018-03-04T00:20:46.262Z,-3.10
2018-03-04T00:23:14.538Z,-3.70
2018-03-04T00:25:42.825Z,-4.20
2018-03-04T00:28:11.077Z,-4.50
2018-03-04T00:30:39.340Z,-4.80
2018-03-04T00:33:07.629Z,-4.80
2018-03-04T00:35:35.885Z,-5.00
2018-03-04T00:38:04.991Z,-5.00
2018-03-04T00:40:33.282Z,-5.10
2018-03-04T00:43:01.514Z,-5.20
2018-03-04T00:45:30.553Z,-4.40
2018-03-04T00:47:58.789Z,-4.40
2018-03-04T00:50:27.793Z,-3.70
2018-03-04T00:55:57.352Z,-3.00
2018-03-04T00:58:25.601Z,-3.00
2018-03-04T01:00:53.837Z,-3.40
2018-03-04T01:03:22.158Z,-3.40
2018-03-04T01:05:50.392Z,-2.80
2018-03-04T01:08:32.740Z,-3.10
2018-03-04T01:11:00.974Z,-3.10
2018-03-04T01:13:29.975Z,-2.60
2018-03-04T01:15:59.075Z,-2.80
2018-03-04T01:18:28.066Z,-3.50
2018-03-04T01:20:57.054Z,-4.30
2018-03-04T01:23:26.177Z,-3.70
2018-03-04T01:25:54.408Z,-3.70
2018-03-04T01:28:22.646Z,-2.90
2018-03-04T01:30:50.911Z,-2.50
2018-03-04T01:33:19.149Z,-2.60
2018-03-04T01:38:48.501Z,-2.80
2018-03-04T01:41:16.796Z,-3.80
2018-03-04T01:43:45.044Z,-4.50
2018-03-04T01:46:13.355Z,-4.60
2018-03-04T01:51:52.918Z,-3.90
2018-03-04T01:54:21.185Z,-3.90
2018-03-04T01:59:50.162Z,-4.00
2018-03-04T02:02:32.365Z,-4.00
2018-03-04T02:05:00.746Z,-3.50
2018-03-04T02:07:28.974Z,-3.20
2018-03-04T02:09:57.988Z,-2.90
2018-03-04T02:12:26.267Z,-2.90
2018-03-04T02:14:54.519Z,-3.40
2018-03-04T02:17:33.473Z,-4.40
2018-03-04T02:20:01.702Z,-5.00
2018-03-04T02:22:30.206Z,-5.30
2018-03-04T02:24:58.484Z,-5.30
2018-03-04T02:27:26.726Z,-5.60
2018-03-04T02:32:55.753Z,-6.30
2018-03-04T02:35:24.001Z,-5.00
2018-03-04T02:37:53.028Z,-4.50
2018-03-04T02:40:21.597Z,-4.40
2018-03-04T02:42:49.830Z,-4.70
2018-03-04T02:45:18.075Z,-5.50
2018-03-04T02:47:46.350Z,-5.90
2018-03-04T02:50:14.645Z,-5.70
2018-03-04T02:52:42.908Z,-5.70
2018-03-04T02:55:11.182Z,-5.30
2018-03-04T02:57:39.459Z,-4.90
2018-03-04T03:00:07.692Z,-5.20
2018-03-04T03:02:36.115Z,-5.40
2018-03-04T03:05:04.345Z,-4.40
2018-03-04T03:07:33.429Z,-3.80
2018-03-04T03:10:01.700Z,-3.90
2018-03-04T03:12:33.184Z,-3.70
2018-03-04T03:15:01.416Z,-4.20
2018-03-04T03:17:30.461Z,-4.20
2018-03-04T03:19:58.751Z,-4.20
2018-03-04T03:22:26.996Z,-3.80
2018-03-04T03:24:55.580Z,-3.60
2018-03-04T03:27:33.893Z,-3.50
2018-03-04T03:30:02.167Z,-3.50
2018-03-04T03:32:30.409Z,-3.90
2018-03-04T03:38:31.295Z,-4.20
2018-03-04T03:43:59.962Z,-3.60
2018-03-04T03:46:28.245Z,-3.50
2018-03-04T03:51:58.386Z,-3.30
2018-03-04T03:54:26.652Z,-3.30
2018-03-04T03:56:54.883Z,-3.20
2018-03-04T03:59:23.140Z,-3.30
2018-03-04T04:01:51.385Z,-3.30
2018-03-04T04:04:19.621Z,-3.40
2018-03-04T04:06:48.736Z,-3.80
2018-03-04T04:09:17.021Z,-3.90
2018-03-04T04:11:45.299Z,-3.50
2018-03-04T04:14:13.559Z,-3.50
2018-03-04T04:16:42.557Z,-3.90
2018-03-04T04:19:10.788Z,-4.00
2018-03-04T04:21:39.083Z,-3.90
2018-03-04T04:24:08.079Z,-4.40
2018-03-04T04:26:37.203Z,-4.40
2018-03-04T04:29:05.483Z,-4.40
2018-03-04T04:31:33.717Z,-4.20
2018-03-04T04:34:02.032Z,-4.20
2018-03-04T04:36:33.921Z,-4.50
2018-03-04T04:39:02.240Z,-4.30
2018-03-04T04:41:31.244Z,-3.80
2018-03-04T04:43:59.531Z,-3.90
2018-03-04T04:46:27.761Z,-3.90
2018-03-04T04:51:57.429Z,-3.90
2018-03-04T04:54:25.688Z,-3.80
2018-03-04T04:56:53.912Z,-3.70
2018-03-04T04:59:22.258Z,-3.90
2018-03-04T05:01:50.484Z,-3.90
2018-03-04T05:04:18.704Z,-4.00
2018-03-04T05:06:47.020Z,-3.70
2018-03-04T05:09:15.295Z,-4.70
2018-03-04T05:11:43.552Z,-3.70
2018-03-04T05:14:11.821Z,-4.20
2018-03-04T05:16:40.052Z,-4.30
2018-03-04T05:19:09.051Z,-3.90
2018-03-04T05:21:37.330Z,-3.90
2018-03-04T05:24:05.622Z,-3.80
2018-03-04T05:26:46.913Z,-3.90
2018-03-04T05:29:15.202Z,-3.60
2018-03-04T05:31:44.036Z,-3.60
2018-03-04T05:34:12.300Z,-3.90
2018-03-04T05:36:40.553Z,-4.30
2018-03-04T05:39:08.790Z,-4.10
2018-03-04T05:41:37.826Z,-5.60
2018-03-04T05:44:32.003Z,-5.70
2018-03-04T05:47:00.289Z,-4.70
2018-03-04T05:49:28.531Z,-5.50
2018-03-04T05:51:56.761Z,-5.70
2018-03-04T05:54:25.046Z,-4.30
2018-03-04T05:56:55.004Z,-3.40
2018-03-04T05:59:33.097Z,-3.40
2018-03-04T06:02:01.346Z,-3.40
2018-03-04T06:04:30.365Z,-3.40
2018-03-04T06:06:58.624Z,-3.30
2018-03-04T06:09:27.631Z,-3.50
2018-03-04T06:14:57.270Z,-3.50
2018-03-04T06:17:25.555Z,-3.50
2018-03-04T06:19:53.817Z,-3.50
2018-03-04T06:22:22.203Z,-3.20
2018-03-04T06:24:50.442Z,-3.30
2018-03-04T06:30:28.598Z,-2.80
2018-03-04T06:32:56.828Z,-3.10
2018-03-04T06:35:25.058Z,-3.00
2018-03-04T06:37:54.135Z,-3.40
2018-03-04T06:40:22.374Z,-3.50
2018-03-04T06:42:50.617Z,-3.20
2018-03-04T06:45:18.897Z,-3.40
2018-03-04T06:47:47.134Z,-3.20
2018-03-04T06:50:16.137Z,-3.00
2018-03-04T06:52:44.478Z,-3.00
2018-03-04T06:55:12.700Z,-3.20
2018-03-04T06:57:41.721Z,-3.60
2018-03-04T07:00:10.030Z,-3.70
2018-03-04T07:02:38.247Z,-3.10
2018-03-04T07:05:32.910Z,-3.70
2018-03-04T07:08:01.141Z,-3.80
2018-03-04T07:10:29.418Z,-3.50
2018-03-04T07:12:57.706Z,-3.80
2018-03-04T07:15:25.953Z,-3.90
2018-03-04T07:17:54.197Z,-3.70
2018-03-04T07:20:23.248Z,-3.90
2018-03-04T07:22:51.492Z,-3.90
2018-03-04T07:25:19.726Z,-3.70
2018-03-04T07:27:48.027Z,-3.80
2018-03-04T07:30:16.261Z,-3.70
2018-03-04T07:32:44.490Z,-3.70
2018-03-04T07:35:12.752Z,-3.50
2018-03-04T07:37:41.732Z,-3.40
2018-03-04T07:40:10.752Z,-3.20
2018-03-04T07:42:39.000Z,-3.20
2018-03-04T07:45:08.037Z,-3.20
2018-03-04T07:47:36.275Z,-3.20
2018-03-04T07:50:31.879Z,-3.60
2018-03-04T07:53:00.874Z,-3.40
2018-03-04T07:55:29.951Z,-3.30
2018-03-04T07:57:58.193Z,-3.30
2018-03-04T08:00:33.414Z,-3.50
2018-03-04T08:03:01.668Z,-3.30
2018-03-04T08:05:29.897Z,-3.50
2018-03-04T08:07:58.138Z,-3.80
2018-03-04T08:10:26.364Z,-4.40
2018-03-04T08:12:54.671Z,-3.80
2018-03-04T08:15:22.904Z,-3.60
2018-03-04T08:17:51.133Z,-3.90
2018-03-04T08:20:19.404Z,-3.80
2018-03-04T08:22:47.630Z,-3.40
2018-03-04T08:25:30.943Z,-3.50
2018-03-04T08:28:17.245Z,-3.10
2018-03-04T08:30:45.661Z,-3.50
2018-03-04T08:33:34.194Z,-3.00
2018-03-04T08:36:03.265Z,-2.70
2018-03-04T08:38:31.547Z,-2.70
2018-03-04T08:40:59.787Z,-3.10
2018-03-04T08:43:34.089Z,-2.70
2018-03-04T08:49:05.465Z,-2.20
2018-03-04T08:51:33.794Z,-2.20
2018-03-04T09:03:05.041Z,-2.40
2018-03-04T09:08:34.086Z,-2.90
2018-03-04T09:11:02.335Z,-2.00
2018-03-04T09:16:33.576Z,-2.50
2018-03-04T09:19:01.801Z,-2.60
2018-03-04T09:21:35.834Z,-2.00
2018-03-04T09:24:31.996Z,-1.90
2018-03-04T09:27:00.243Z,-1.90
2018-03-04T09:32:35.790Z,-1.80
2018-03-04T09:35:04.017Z,-1.30
2018-03-04T09:37:33.769Z,-1.70
2018-03-04T09:40:32.449Z,-1.90
2018-03-04T09:43:00.711Z,-1.50
2018-03-04T09:45:35.341Z,-1.70
2018-03-04T09:54:31.983Z,-1.90
2018-03-04T10:03:00.762Z,-1.90
2018-03-04T10:08:35.559Z,-1.70
2018-03-04T10:11:32.396Z,-1.70
2018-03-04T10:17:00.750Z,-1.60
2018-03-04T10:22:34.007Z,-1.20
2018-03-04T10:31:04.491Z,-1.10
2018-03-04T10:33:33.561Z,-1.10
2018-03-04T10:36:32.743Z,-1.30
2018-03-04T10:41:35.093Z,-0.80
2018-03-04T10:49:37.454Z,-0.60
2018-03-04T10:52:31.654Z,-0.80
2018-03-04T11:04:32.469Z,-0.70
2018-03-04T11:07:00.692Z,-0.70
2018-03-04T11:12:30.129Z,-0.60
2018-03-04T11:14:58.513Z,-0.70
2018-03-04T11:17:26.795Z,-0.40
2018-03-04T11:19:55.085Z,-0.40
2018-03-04T11:25:24.218Z,-0.20
2018-03-04T11:30:53.137Z,-0.30
2018-03-04T11:33:21.366Z,-0.20
2018-03-04T11:35:49.585Z,-0.10
2018-03-04T11:38:17.830Z,-0.10
2018-03-04T11:40:46.123Z,-0.20
2018-03-04T11:46:14.899Z,0.20
2018-03-04T11:48:43.122Z,0.20
2018-03-04T11:54:12.090Z,0.20
2018-03-04T11:56:40.317Z,0.10
2018-03-04T12:02:09.776Z,0.30
2018-03-04T12:07:39.196Z,0.50
2018-03-04T12:10:07.405Z,0.50
2018-03-04T12:12:35.658Z,0.50
2018-03-04T12:15:03.873Z,0.70
2018-03-04T12:20:34.277Z,0.80
2018-03-04T12:23:02.492Z,0.80
2018-03-04T12:25:33.730Z,0.80
2018-03-04T12:28:01.949Z,1.00
2018-03-04T12:30:30.158Z,1.00
2018-03-04T12:35:58.897Z,1.10
2018-03-04T12:38:27.876Z,1.30
2018-03-04T12:40:56.089Z,1.20
2018-03-04T12:43:24.342Z,1.40
2018-03-04T12:45:53.332Z,1.50
2018-03-04T12:48:22.373Z,1.40
2018-03-04T12:50:50.576Z,1.40
2018-03-04T12:59:32.961Z,1.80
2018-03-04T13:02:01.226Z,1.70
2018-03-04T13:04:30.212Z,1.90
2018-03-04T13:06:59.310Z,2.00
2018-03-04T13:09:28.366Z,2.00
2018-03-04T13:17:57.390Z,2.10
2018-03-04T13:20:25.596Z,2.50
2018-03-04T13:22:53.849Z,2.30
2018-03-04T13:25:22.062Z,2.30
2018-03-04T13:30:51.472Z,2.50
2018-03-04T13:33:20.451Z,2.60
2018-03-04T13:38:49.807Z,2.80
2018-03-04T13:41:18.019Z,2.80
2018-03-04T13:43:46.235Z,2.70
2018-03-04T13:46:15.358Z,2.80
2018-03-04T13:48:43.578Z,2.80
2018-03-04T13:51:11.788Z,2.80
2018-03-04T13:53:40.082Z,2.80
2018-03-04T13:56:08.293Z,2.90
2018-03-04T13:58:36.513Z,3.00
2018-03-04T14:01:04.776Z,2.90
2018-03-04T14:03:33.758Z,2.90
2018-03-04T14:06:01.985Z,2.90
2018-03-04T14:08:30.278Z,3.10
2018-03-04T14:13:59.560Z,3.10
2018-03-04T14:16:27.787Z,3.00
2018-03-04T14:21:57.676Z,3.20
2018-03-04T14:24:25.956Z,3.10
2018-03-04T14:26:54.183Z,3.30
2018-03-04T14:29:23.228Z,3.20
2018-03-04T14:31:51.437Z,3.10
2018-03-04T14:34:19.644Z,3.30
2018-03-04T14:36:48.649Z,3.40
2018-03-04T14:39:16.861Z,3.40
2018-03-04T14:41:45.197Z,3.60
2018-03-04T14:44:13.417Z,3.60
2018-03-04T14:46:41.633Z,3.60
2018-03-04T14:49:10.673Z,3.70
2018-03-04T14:51:38.894Z,3.70
2018-03-04T14:54:34.277Z,3.30
2018-03-04T14:57:02.486Z,3.20
2018-03-04T14:59:35.491Z,3.40
2018-03-04T15:02:03.723Z,3.40
2018-03-04T15:04:32.696Z,3.90
2018-03-04T15:07:00.955Z,3.90
2018-03-04T15:09:29.182Z,3.60
2018-03-04T15:11:58.168Z,3.40
2018-03-04T15:17:27.623Z,3.40
2018-03-04T15:19:55.851Z,3.40
2018-03-04T15:22:33.808Z,3.60
2018-03-04T15:25:02.030Z,3.30
2018-03-04T15:27:33.675Z,3.40
2018-03-04T15:30:01.893Z,3.50
2018-03-04T15:32:30.210Z,3.40
2018-03-04T15:34:58.464Z,3.30
2018-03-04T15:37:26.672Z,3.40
2018-03-04T15:39:54.883Z,3.40
2018-03-04T15:42:23.868Z,3.30
2018-03-04T15:44:52.844Z,3.20
2018-03-04T15:47:21.102Z,3.10
2018-03-04T15:52:49.714Z,3.30
2018-03-04T15:58:32.869Z,3.20
2018-03-04T16:01:01.098Z,3.20
2018-03-04T16:03:36.449Z,3.30
2018-03-04T16:06:04.671Z,3.30
2018-03-04T16:09:53.654Z,3.00
2018-03-04T16:12:21.961Z,3.00
2018-03-04T16:14:50.169Z,2.90
2018-03-04T16:17:18.394Z,2.90
2018-03-04T16:19:46.753Z,2.90
2018-03-04T16:22:14.976Z,2.80
2018-03-04T16:24:43.203Z,2.90
2018-03-04T16:27:11.481Z,2.80
2018-03-04T16:29:39.684Z,2.80
2018-03-04T16:32:34.532Z,2.80
2018-03-04T16:35:03.519Z,2.60
2018-03-04T16:37:34.344Z,2.60
2018-03-04T16:40:02.557Z,2.50
2018-03-04T16:42:30.766Z,2.50
2018-03-04T16:44:59.032Z,2.40
2018-03-04T16:47:33.597Z,2.40
2018-03-04T16:50:02.611Z,2.30
2018-03-04T16:52:31.636Z,2.20
2018-03-04T16:54:59.863Z,2.20
2018-03-04T16:57:28.867Z,2.10
2018-03-04T17:02:41.173Z,2.00
2018-03-04T17:05:33.442Z,1.90
2018-03-04T17:08:01.649Z,1.90
2018-03-04T17:10:33.989Z,1.90
2018-03-04T17:13:02.222Z,1.70
2018-03-04T17:15:30.446Z,1.70
2018-03-04T17:17:58.711Z,1.70
2018-03-04T17:20:26.939Z,1.60
2018-03-04T17:22:55.168Z,1.50
2018-03-04T17:25:23.445Z,1.70
2018-03-04T17:27:51.675Z,1.60
2018-03-04T17:30:20.670Z,1.50
2018-03-04T17:35:50.565Z,1.80
2018-03-04T17:38:18.779Z,1.80
2018-03-04T17:40:47.766Z,1.60
2018-03-04T17:43:16.795Z,1.60
2018-03-04T17:45:45.022Z,1.60
2018-03-04T17:48:14.091Z,1.40
2018-03-04T17:50:42.314Z,1.40
2018-03-04T17:53:11.307Z,1.40
2018-03-04T17:55:40.570Z,1.30
2018-03-04T17:58:34.357Z,1.40
2018-03-04T18:01:33.186Z,1.40
2018-03-04T18:11:50.623Z,1.10
2018-03-04T18:14:33.633Z,1.00
2018-03-04T18:20:01.961Z,0.90
2018-03-04T18:25:33.974Z,1.10
2018-03-04T18:28:32.263Z,1.00
2018-03-04T18:34:32.067Z,0.70
2018-03-04T18:43:33.295Z,0.90
2018-03-04T18:50:34.346Z,0.80
2018-03-04T18:56:33.879Z,0.80
2018-03-04T18:59:32.570Z,0.70
2018-03-04T19:02:00.849Z,0.70
2018-03-04T19:12:32.186Z,0.70
2018-03-04T19:18:32.284Z,0.60
2018-03-04T19:24:02.098Z,0.40
2018-03-04T19:26:34.742Z,0.40
2018-03-04T19:29:33.694Z,0.50
2018-03-04T19:32:01.917Z,0.50
2018-03-04T19:34:30.141Z,0.60
2018-03-04T19:42:59.402Z,0.60
2018-03-04T20:19:42.499Z,0.40
2018-03-04T20:29:52.954Z,-0.10
2018-03-04T20:35:21.955Z,0.20
2018-03-04T20:37:50.961Z,0.10
2018-03-04T20:40:33.950Z,0.00
2018-03-04T20:43:32.140Z,0.00
2018-03-04T20:49:02.222Z,0.00
2018-03-04T20:51:33.867Z,0.00
2018-03-04T20:57:03.333Z,-0.30
2018-03-04T20:59:32.608Z,-0.40
2018-03-04T21:02:00.822Z,-0.20
2018-03-04T21:07:25.925Z,0.10
2018-03-04T21:09:54.155Z,-0.50
2018-03-04T21:15:35.823Z,-0.30
2018-03-04T21:18:04.846Z,-0.50
2018-03-04T21:20:33.953Z,-0.40
2018-03-04T21:34:33.235Z,-0.30
2018-03-04T21:37:01.465Z,-0.40
2018-03-04T21:39:29.696Z,-0.40
2018-03-04T21:41:57.979Z,-0.40
2018-03-04T21:44:26.245Z,-0.60
2018-03-04T21:46:54.455Z,-0.70
2018-03-04T21:49:22.724Z,-0.60
2018-03-04T21:51:50.948Z,-0.50
2018-03-04T21:54:19.165Z,-0.50
2018-03-04T21:59:44.662Z,-0.50
2018-03-04T22:02:12.881Z,-0.50
2018-03-04T22:10:41.915Z,-0.50
2018-03-04T22:13:10.156Z,-0.30
2018-03-04T22:15:38.367Z,-0.50
2018-03-04T22:18:06.632Z,-0.30
2018-03-04T22:20:34.934Z,-0.40
2018-03-04T22:23:32.225Z,-0.20
2018-03-04T22:26:00.450Z,-0.20
2018-03-04T22:34:34.929Z,-0.60
2018-03-04T22:37:32.877Z,-0.60
2018-03-04T22:43:01.937Z,-0.40
2018-03-04T22:45:30.182Z,-0.30
2018-03-04T22:47:59.174Z,-0.70
2018-03-04T22:50:28.393Z,-0.50
2018-03-04T22:58:57.570Z,-0.50
2018-03-04T23:04:26.954Z,-0.60
2018-03-04T23:06:55.180Z,-0.60
2018-03-04T23:09:34.144Z,-0.60
2018-03-04T23:12:02.378Z,-0.60
2018-03-04T23:14:34.293Z,-0.70
2018-03-04T23:17:02.532Z,-0.70
2018-03-04T23:22:34.255Z,-0.60
2018-03-04T23:25:32.362Z,-0.70
2018-03-04T23:37:01.260Z,-0.70
2018-03-04T23:39:29.481Z,-0.70
2018-03-04T23:41:57.727Z,-0.50
2018-03-04T23:44:26.001Z,-0.60
2018-03-04T23:49:54.800Z,-0.70
2018-03-04T23:52:23.030Z,-0.80
2018-03-04T23:54:52.026Z,-0.60
2018-03-04T23:57:33.551Z,-0.70
